Time;durP1;ratioP1;P1;durP2;ratioP2;P2;SDS_P1;SDS_P2;PMS_P1;PMS_P2;Temp;Humidity;BMP_temperature;BMP_pressure;BME280_temperature;BME280_humidity;BME280_pressure;Samples;Min_cycle;Max_cycle;Signal;HPM_P1;HPM_P2
2023/07/31 00:01:38;;;;;;;5.93;2.50;;;16.20;22.10;;;;;;5001101;28;20472;-65
2023/07/31 00:04:05;;;;;;;9.50;2.67;;;16.20;22.30;;;;;;5007568;28;20483;-65
2023/07/31 00:06:31;;;;;;;6.43;2.40;;;16.10;22.50;;;;;;5005566;28;21688;-65
2023/07/31 00:08:58;;;;;;;7.60;3.43;;;16.10;22.40;;;;;;4997082;28;20511;-65
2023/07/31 00:11:25;;;;;;;6.17;2.63;;;16.10;22.50;;;;;;5007325;28;20471;-65
2023/07/31 00:13:53;;;;;;;9.10;2.90;;;16.10;22.80;;;;;;5001356;28;20491;-65
2023/07/31 00:16:20;;;;;;;7.13;2.70;;;16.10;23.20;;;;;;5010243;28;20454;-65
2023/07/31 00:18:47;;;;;;;6.37;2.80;;;16.00;23.50;;;;;;5010393;28;20455;-66
2023/07/31 00:21:14;;;;;;;10.13;2.97;;;16.00;23.70;;;;;;5011066;28;20460;-65
2023/07/31 00:23:40;;;;;;;5.90;2.50;;;16.00;24.00;;;;;;5009934;28;20476;-65
2023/07/31 00:26:07;;;;;;;5.83;2.23;;;16.00;24.10;;;;;;5012049;28;20476;-65
2023/07/31 00:28:34;;;;;;;5.53;2.30;;;16.00;24.30;;;;;;5007632;28;20983;-65
2023/07/31 00:31:03;;;;;;;7.73;1.93;;;16.00;24.40;;;;;;5010347;28;20483;-65
2023/07/31 00:33:30;;;;;;;7.80;3.13;;;16.00;24.50;;;;;;5008647;28;20474;-65
2023/07/31 00:35:57;;;;;;;7.00;2.57;;;15.90;24.60;;;;;;5011631;28;20451;-65
2023/07/31 00:38:24;;;;;;;5.37;2.83;;;15.90;24.80;;;;;;5007890;28;20451;-64
2023/07/31 00:40:50;;;;;;;5.83;2.50;;;15.80;25.00;;;;;;5008448;28;20455;-65
2023/07/31 00:43:17;;;;;;;7.67;3.03;;;15.70;25.30;;;;;;5008870;28;20459;-65
2023/07/31 00:45:44;;;;;;;7.00;3.10;;;15.70;25.50;;;;;;5009200;28;20484;-65
2023/07/31 00:50:49;;;;;;;11.53;2.60;;;15.60;25.80;;;;;;4987743;28;21024;-65
2023/07/31 00:53:16;;;;;;;8.63;3.13;;;15.60;25.90;;;;;;4987612;28;21033;-65
2023/07/31 00:55:44;;;;;;;6.37;3.10;;;15.50;26.10;;;;;;4988287;28;20464;-64
2023/07/31 00:58:10;;;;;;;5.50;2.73;;;15.50;26.30;;;;;;4992401;28;20474;-65
2023/07/31 01:00:37;;;;;;;9.73;4.10;;;15.40;26.50;;;;;;4985175;28;20836;-64
2023/07/31 01:03:04;;;;;;;6.60;3.60;;;15.40;26.90;;;;;;4975966;28;20480;-64
2023/07/31 01:05:41;;;;;;;5.80;3.13;;;15.30;27.40;;;;;;4976186;28;20481;-64
2023/07/31 01:08:19;;;;;;;10.40;3.90;;;15.30;27.70;;;;;;4976236;28;20486;-65
2023/07/31 01:10:51;;;;;;;5.60;3.10;;;15.30;28.60;;;;;;4966935;28;20468;-64
2023/07/31 01:13:19;;;;;;;8.40;2.70;;;15.30;28.80;;;;;;4972950;28;20470;-65
2023/07/31 01:15:45;;;;;;;6.80;2.90;;;15.30;29.10;;;;;;4970973;28;20898;-64
2023/07/31 01:18:12;;;;;;;6.47;3.10;;;15.20;29.10;;;;;;4971595;28;20461;-65
2023/07/31 01:20:42;;;;;;;7.70;2.50;;;15.20;29.20;;;;;;4973764;28;20497;-64
2023/07/31 01:23:36;;;;;;;6.33;2.50;;;15.20;29.20;;;;;;4969452;28;20464;-65
2023/07/31 01:26:12;;;;;;;5.77;3.10;;;15.10;29.50;;;;;;4970393;28;20485;-65
2023/07/31 01:28:47;;;;;;;9.80;3.17;;;15.10;29.30;;;;;;4971593;28;20484;-65
2023/07/31 01:31:19;;;;;;;6.67;2.50;;;15.00;29.40;;;;;;4971052;28;20477;-64
2023/07/31 01:33:46;;;;;;;6.63;3.03;;;15.00;29.50;;;;;;4964804;28;20500;-64
2023/07/31 01:36:13;;;;;;;10.40;2.53;;;15.00;29.70;;;;;;4970162;28;20453;-64
2023/07/31 01:38:40;;;;;;;10.30;3.13;;;15.00;29.90;;;;;;4972380;28;20468;-64
2023/07/31 01:41:08;;;;;;;8.40;2.67;;;15.00;30.10;;;;;;4973301;28;20883;-64
2023/07/31 01:43:35;;;;;;;9.93;2.77;;;15.00;30.10;;;;;;4966973;28;20481;-65
2023/07/31 01:46:01;;;;;;;5.77;2.93;;;15.00;30.40;;;;;;4965416;28;20482;-65
2023/07/31 01:48:28;;;;;;;5.93;2.80;;;15.00;30.90;;;;;;4975340;28;20480;-65
2023/07/31 01:50:55;;;;;;;7.17;2.80;;;15.00;30.60;;;;;;4970669;28;20516;-65
2023/07/31 01:53:22;;;;;;;7.90;3.10;;;15.10;30.60;;;;;;4973928;28;21002;-64
2023/07/31 01:55:48;;;;;;;7.07;2.93;;;15.00;30.90;;;;;;4974202;28;20958;-65
2023/07/31 01:58:16;;;;;;;7.70;3.20;;;15.00;31.00;;;;;;4965716;28;20462;-64
2023/07/31 02:00:43;;;;;;;7.90;3.17;;;15.00;31.00;;;;;;4968898;28;20470;-64
2023/07/31 02:03:10;;;;;;;8.30;3.40;;;15.00;31.10;;;;;;4973109;28;20465;-65
2023/07/31 02:05:36;;;;;;;8.10;3.70;;;15.00;31.10;;;;;;4973732;28;20494;-65
2023/07/31 02:08:04;;;;;;;5.43;3.07;;;15.00;31.10;;;;;;4975792;28;20457;-64
2023/07/31 02:10:30;;;;;;;8.70;3.10;;;15.00;31.30;;;;;;4971958;28;20469;-64
2023/07/31 02:12:57;;;;;;;7.10;3.37;;;15.10;31.10;;;;;;4965630;28;20465;-64
2023/07/31 02:15:25;;;;;;;6.70;3.27;;;15.10;31.00;;;;;;4967861;28;20564;-65
2023/07/31 02:17:52;;;;;;;7.37;3.33;;;15.00;30.80;;;;;;4973896;28;20466;-64
2023/07/31 02:20:19;;;;;;;8.07;3.40;;;15.10;30.90;;;;;;4969287;28;21003;-64
2023/07/31 02:22:45;;;;;;;4.47;2.77;;;15.10;31.00;;;;;;4973761;28;20469;-65
2023/07/31 02:25:12;;;;;;;7.33;3.00;;;15.00;31.30;;;;;;4970082;28;20489;-65
2023/07/31 02:27:39;;;;;;;11.37;3.57;;;15.00;31.30;;;;;;4971686;28;20473;-65
2023/07/31 02:30:06;;;;;;;11.03;3.60;;;15.00;31.20;;;;;;4966355;28;20457;-64
2023/07/31 02:32:34;;;;;;;6.67;3.00;;;15.00;31.20;;;;;;4967021;28;20518;-65
2023/07/31 02:35:01;;;;;;;8.97;4.67;;;15.00;31.10;;;;;;4968773;28;20477;-65
2023/07/31 02:37:28;;;;;;;8.53;2.60;;;14.90;31.10;;;;;;4969100;28;20461;-65
2023/07/31 02:39:55;;;;;;;8.40;3.30;;;14.90;31.10;;;;;;4969047;28;20481;-65
2023/07/31 02:42:22;;;;;;;7.80;3.50;;;14.90;31.00;;;;;;4969480;28;20980;-65
2023/07/31 02:44:51;;;;;;;11.73;4.00;;;14.80;31.00;;;;;;4964745;28;20482;-65
2023/07/31 02:47:17;;;;;;;5.03;2.93;;;14.80;31.10;;;;;;4968341;28;20541;-64
2023/07/31 02:49:45;;;;;;;6.87;3.03;;;14.80;31.40;;;;;;4973240;28;20472;-64
2023/07/31 02:52:12;;;;;;;6.30;3.00;;;14.80;31.70;;;;;;4970365;28;20465;-64
2023/07/31 02:54:39;;;;;;;6.47;3.00;;;14.80;31.70;;;;;;4972029;28;20491;-65
2023/07/31 02:57:06;;;;;;;12.03;3.63;;;14.80;31.90;;;;;;4972139;28;20461;-65
2023/07/31 02:59:33;;;;;;;10.50;3.30;;;14.80;32.00;;;;;;4967567;28;20831;-65
2023/07/31 03:01:59;;;;;;;7.50;3.53;;;14.80;32.00;;;;;;4970522;28;20485;-65
2023/07/31 03:04:26;;;;;;;6.27;2.93;;;14.80;32.10;;;;;;4967937;28;20485;-65
2023/07/31 03:06:54;;;;;;;5.23;2.40;;;14.80;32.30;;;;;;4968462;28;20496;-65
2023/07/31 03:09:21;;;;;;;8.00;3.00;;;14.80;32.10;;;;;;4969139;28;20469;-65
2023/07/31 03:11:47;;;;;;;9.37;3.23;;;14.80;32.00;;;;;;4968002;28;21002;-64
2023/07/31 03:14:14;;;;;;;7.47;2.70;;;14.80;32.00;;;;;;4970777;28;20481;-64
2023/07/31 03:16:41;;;;;;;6.97;2.53;;;14.90;31.90;;;;;;4967999;28;20470;-64
2023/07/31 03:19:07;;;;;;;5.10;2.87;;;14.90;31.90;;;;;;4966671;28;20480;-64
2023/07/31 03:21:34;;;;;;;5.03;2.40;;;14.90;31.90;;;;;;4965334;28;20473;-64
2023/07/31 03:24:02;;;;;;;6.20;3.17;;;14.90;31.90;;;;;;4969366;28;20486;-64
2023/07/31 03:26:29;;;;;;;7.90;3.20;;;14.90;31.90;;;;;;4971753;28;21006;-64
2023/07/31 03:28:56;;;;;;;6.00;2.93;;;14.80;31.70;;;;;;4967446;28;20476;-64
2023/07/31 03:31:23;;;;;;;6.70;3.43;;;14.80;31.60;;;;;;4961778;28;20489;-64
2023/07/31 03:33:49;;;;;;;7.03;3.20;;;14.80;31.60;;;;;;4965202;28;20481;-64
2023/07/31 03:36:16;;;;;;;7.40;3.90;;;14.70;31.70;;;;;;4965814;28;20466;-64
2023/07/31 03:38:43;;;;;;;6.93;2.90;;;14.70;31.80;;;;;;4963139;28;20477;-65
2023/07/31 03:41:11;;;;;;;6.60;3.53;;;14.70;32.20;;;;;;4958510;28;20465;-65
2023/07/31 03:43:38;;;;;;;8.20;3.23;;;14.70;32.50;;;;;;4962013;28;20521;-67
2023/07/31 03:46:04;;;;;;;5.87;3.03;;;14.70;32.40;;;;;;4967943;28;20477;-67
2023/07/31 03:48:31;;;;;;;5.80;2.93;;;14.70;32.30;;;;;;4965012;28;20470;-67
2023/07/31 03:50:58;;;;;;;7.43;3.70;;;14.80;32.00;;;;;;4969589;28;20476;-68
2023/07/31 03:53:25;;;;;;;10.50;3.10;;;14.90;31.80;;;;;;4970219;28;20468;-67
2023/07/31 03:55:51;;;;;;;7.70;2.67;;;14.90;31.70;;;;;;4967552;28;20812;-69
2023/07/31 03:58:19;;;;;;;6.80;2.60;;;14.90;31.60;;;;;;4967149;28;20468;-65
2023/07/31 04:00:46;;;;;;;13.13;4.03;;;14.90;31.50;;;;;;4962123;28;21191;-66
2023/07/31 04:03:13;;;;;;;6.20;3.30;;;14.90;31.50;;;;;;4970673;28;20474;-66
2023/07/31 04:05:40;;;;;;;8.83;3.40;;;14.90;31.60;;;;;;4970852;28;20477;-66
2023/07/31 04:08:07;;;;;;;16.23;3.50;;;14.90;31.60;;;;;;4972150;28;20882;-66
2023/07/31 04:10:34;;;;;;;5.43;2.30;;;14.90;31.60;;;;;;4969047;28;20473;-66
2023/07/31 04:13:01;;;;;;;6.20;2.90;;;14.90;31.30;;;;;;4971727;28;20461;-66
2023/07/31 04:15:29;;;;;;;7.03;3.20;;;14.90;31.40;;;;;;4972198;28;20516;-66
2023/07/31 04:17:55;;;;;;;8.00;4.77;;;15.00;31.50;;;;;;4973347;28;20465;-66
2023/07/31 04:20:22;;;;;;;7.80;2.73;;;15.00;31.30;;;;;;4972141;28;20480;-66
2023/07/31 04:22:49;;;;;;;5.37;3.07;;;15.10;31.30;;;;;;4972106;28;20468;-66
2023/07/31 04:25:16;;;;;;;6.93;3.23;;;15.10;31.20;;;;;;4970921;28;21030;-66
2023/07/31 04:27:43;;;;;;;10.40;2.80;;;15.20;31.10;;;;;;4970673;28;20489;-66
2023/07/31 04:30:10;;;;;;;7.60;3.77;;;15.30;31.40;;;;;;4970437;28;20993;-66
2023/07/31 04:32:38;;;;;;;6.57;3.00;;;15.30;31.40;;;;;;4969435;28;20488;-66
2023/07/31 04:35:05;;;;;;;5.10;2.50;;;15.40;31.30;;;;;;4969999;28;20489;-66
2023/07/31 04:37:32;;;;;;;7.07;3.10;;;15.50;31.00;;;;;;4968785;28;20508;-67
2023/07/31 04:39:59;;;;;;;5.70;3.53;;;15.60;30.80;;;;;;4975470;28;21008;-66
2023/07/31 04:42:26;;;;;;;8.63;3.10;;;15.70;30.50;;;;;;4968889;28;20992;-66
2023/07/31 04:44:53;;;;;;;9.93;3.77;;;15.90;30.30;;;;;;4973011;28;20485;-66
2023/07/31 04:47:20;;;;;;;9.17;3.10;;;16.00;29.90;;;;;;4971888;28;20521;-66
2023/07/31 04:49:48;;;;;;;9.73;3.10;;;16.10;29.50;;;;;;4967857;28;20480;-66
2023/07/31 04:52:14;;;;;;;8.27;2.33;;;16.30;29.20;;;;;;4968698;28;20466;-66
2023/07/31 04:54:41;;;;;;;6.33;2.87;;;16.40;28.80;;;;;;4971274;28;20474;-66
2023/07/31 04:57:08;;;;;;;8.20;3.30;;;16.50;28.40;;;;;;4970146;28;20484;-66
2023/07/31 04:59:35;;;;;;;8.97;3.50;;;16.70;28.00;;;;;;4969403;28;21022;-66
2023/07/31 05:02:01;;;;;;;8.23;2.70;;;16.80;27.50;;;;;;4970563;28;20477;-66
2023/07/31 05:04:28;;;;;;;7.43;2.80;;;17.00;26.70;;;;;;4966445;28;20485;-66
2023/07/31 05:06:56;;;;;;;5.87;2.40;;;17.10;26.00;;;;;;4965890;28;20489;-66
2023/07/31 05:09:23;;;;;;;8.70;2.73;;;17.30;25.10;;;;;;4966392;28;20473;-66
2023/07/31 05:11:49;;;;;;;4.63;2.80;;;17.30;24.60;;;;;;4971106;28;20461;-66
2023/07/31 05:14:16;;;;;;;7.37;2.90;;;17.50;24.30;;;;;;4967004;28;20477;-66
2023/07/31 05:16:43;;;;;;;9.70;2.90;;;17.60;24.20;;;;;;4970809;28;20457;-66
2023/07/31 05:19:09;;;;;;;7.47;2.40;;;17.80;23.90;;;;;;4967756;28;20811;-67
2023/07/31 05:21:36;;;;;;;5.90;2.93;;;17.90;23.30;;;;;;4970490;28;20460;-66
2023/07/31 05:24:04;;;;;;;6.90;3.27;;;18.30;22.70;;;;;;4967728;28;20489;-66
2023/07/31 05:26:31;;;;;;;7.20;2.63;;;18.80;20.90;;;;;;4968325;28;20565;-66
2023/07/31 05:28:58;;;;;;;5.30;2.50;;;19.10;19.60;;;;;;4965377;28;20453;-67
2023/07/31 05:31:25;;;;;;;4.83;2.50;;;19.20;19.00;;;;;;4969421;28;20500;-66
2023/07/31 05:33:52;;;;;;;10.60;3.57;;;19.10;18.40;;;;;;4967038;28;20994;-66
2023/07/31 05:36:18;;;;;;;6.67;2.87;;;19.10;18.50;;;;;;4970758;28;20975;-66
2023/07/31 05:38:45;;;;;;;5.47;2.80;;;19.00;18.40;;;;;;4969939;28;20465;-66
2023/07/31 05:41:14;;;;;;;4.87;2.43;;;18.90;18.20;;;;;;4969657;28;20464;-66
2023/07/31 05:43:41;;;;;;;5.33;2.30;;;18.80;18.30;;;;;;4970519;28;21041;-67
2023/07/31 05:46:09;;;;;;;7.13;3.17;;;18.70;18.60;;;;;;4968795;28;20466;-66
2023/07/31 05:48:35;;;;;;;7.23;3.70;;;18.70;18.70;;;;;;4968691;28;20466;-67
2023/07/31 05:51:02;;;;;;;7.77;2.97;;;18.70;18.80;;;;;;4970115;28;20469;-67
2023/07/31 05:53:29;;;;;;;6.10;2.57;;;18.70;19.00;;;;;;4968595;28;20462;-67
2023/07/31 05:55:55;;;;;;;5.93;2.40;;;18.70;19.10;;;;;;4969337;28;20462;-67
2023/07/31 05:58:23;;;;;;;6.43;3.67;;;18.80;19.00;;;;;;4970364;28;20462;-67
2023/07/31 06:00:50;;;;;;;7.63;2.80;;;18.90;18.90;;;;;;4969114;28;20476;-66
2023/07/31 06:03:17;;;;;;;7.30;2.87;;;19.00;18.90;;;;;;4970949;28;20489;-66
2023/07/31 06:05:44;;;;;;;6.00;2.30;;;19.40;18.50;;;;;;4968673;28;20462;-67
2023/07/31 06:08:11;;;;;;;6.07;2.40;;;20.80;16.70;;;;;;4970273;28;20566;-67
2023/07/31 06:10:38;;;;;;;6.37;2.60;;;22.50;13.20;;;;;;4968726;28;20461;-67
2023/07/31 06:13:05;;;;;;;6.10;2.20;;;24.00;9.40;;;;;;4969401;28;20474;-67
2023/07/31 06:15:33;;;;;;;4.70;2.03;;;26.00;6.00;;;;;;4970298;28;20985;-67
2023/07/31 06:18:01;;;;;;;4.77;2.00;;;27.80;1.40;;;;;;4970180;28;20470;-66
2023/07/31 06:20:28;;;;;;;5.13;1.90;;;27.90;1.00;;;;;;4967676;28;20876;-67
2023/07/31 06:22:55;;;;;;;5.13;2.53;;;27.20;1.00;;;;;;4969875;28;20461;-66
2023/07/31 06:25:22;;;;;;;6.30;2.20;;;26.70;1.20;;;;;;4969639;28;20481;-67
2023/07/31 06:27:48;;;;;;;4.77;2.07;;;27.10;1.20;;;;;;4970017;28;20481;-67
2023/07/31 06:30:15;;;;;;;5.63;2.37;;;27.50;1.00;;;;;;4967621;28;20472;-67
2023/07/31 06:32:43;;;;;;;7.37;2.70;;;27.60;1.00;;;;;;4969315;28;20462;-67
2023/07/31 06:35:10;;;;;;;7.00;3.00;;;28.80;1.00;;;;;;4969541;28;20505;-67
2023/07/31 06:37:37;;;;;;;6.23;2.33;;;30.70;1.00;;;;;;4970209;28;20462;-67
2023/07/31 06:40:05;;;;;;;6.90;2.40;;;32.70;1.00;;;;;;4969653;28;20464;-67
2023/07/31 06:42:32;;;;;;;9.50;2.70;;;33.40;1.00;;;;;;4969023;28;20468;-67
2023/07/31 06:44:58;;;;;;;7.63;1.97;;;34.10;1.00;;;;;;4969281;28;20490;-68
2023/07/31 06:47:25;;;;;;;5.83;2.57;;;34.10;1.00;;;;;;4970144;28;20490;-68
2023/07/31 06:49:54;;;;;;;4.50;1.90;;;33.60;1.00;;;;;;4979150;23;20595;-64
2023/07/31 06:52:20;;;;;;;9.57;2.30;;;33.30;1.00;;;;;;4970298;28;20458;-64
2023/07/31 06:55:02;;;;;;;4.70;2.27;;;32.00;1.00;;;;;;4966676;28;20482;-64
2023/07/31 06:57:29;;;;;;;11.53;3.10;;;30.50;1.00;;;;;;4965606;28;20487;-65
2023/07/31 06:59:55;;;;;;;10.27;2.93;;;29.30;1.00;;;;;;4969669;28;20462;-64
2023/07/31 07:02:22;;;;;;;5.80;2.60;;;28.20;1.00;;;;;;4985796;28;20481;-64
2023/07/31 07:04:51;;;;;;;5.73;2.70;;;27.20;1.00;;;;;;4982643;28;20495;-64
2023/07/31 07:07:19;;;;;;;5.50;2.03;;;26.40;1.00;;;;;;4986281;28;20480;-64
2023/07/31 07:09:45;;;;;;;5.47;2.30;;;25.50;1.30;;;;;;4989221;28;20464;-64
2023/07/31 07:12:12;;;;;;;7.07;2.80;;;24.80;2.60;;;;;;4991001;28;20544;-65
2023/07/31 07:14:39;;;;;;;5.90;2.37;;;24.20;3.80;;;;;;4988558;28;20480;-63
2023/07/31 07:17:06;;;;;;;5.43;2.50;;;23.70;5.60;;;;;;4991737;28;20457;-63
2023/07/31 07:19:33;;;;;;;7.27;3.93;;;23.20;6.20;;;;;;4993088;28;20971;-63
2023/07/31 07:22:01;;;;;;;6.40;2.90;;;22.80;7.10;;;;;;4990036;28;20456;-64
2023/07/31 07:24:29;;;;;;;4.40;2.30;;;22.50;8.00;;;;;;4989575;28;20476;-64
2023/07/31 07:26:56;;;;;;;7.40;2.70;;;22.30;8.80;;;;;;4991415;28;20491;-64
2023/07/31 07:29:23;;;;;;;6.50;2.57;;;22.10;9.20;;;;;;4987729;28;20825;-64
2023/07/31 07:31:51;;;;;;;8.13;2.80;;;22.00;9.80;;;;;;4993323;28;20479;-64
2023/07/31 07:34:18;;;;;;;6.37;2.67;;;22.00;10.10;;;;;;4993481;28;20484;-64
2023/07/31 07:36:44;;;;;;;8.40;3.57;;;21.90;10.30;;;;;;4990893;28;20473;-64
2023/07/31 07:39:12;;;;;;;5.20;2.40;;;21.80;10.70;;;;;;4989271;28;20457;-64
2023/07/31 07:41:40;;;;;;;6.80;2.30;;;21.90;10.90;;;;;;4991197;28;21161;-64
2023/07/31 07:44:06;;;;;;;7.40;2.63;;;22.00;10.90;;;;;;4992135;28;20483;-64
2023/07/31 07:46:33;;;;;;;4.77;1.70;;;22.40;10.70;;;;;;4992038;28;20456;-64
2023/07/31 07:49:00;;;;;;;6.23;2.20;;;22.80;9.80;;;;;;4991492;28;20479;-64
2023/07/31 07:51:26;;;;;;;7.60;2.17;;;23.20;9.00;;;;;;4990683;28;20461;-64
2023/07/31 07:53:53;;;;;;;7.13;2.10;;;23.50;8.80;;;;;;4986629;28;20518;-64
2023/07/31 07:56:20;;;;;;;5.50;2.07;;;23.90;7.30;;;;;;4990445;28;20460;-64
2023/07/31 07:58:50;;;;;;;6.43;3.23;;;24.30;6.20;;;;;;4992397;28;20464;-64
2023/07/31 08:01:17;;;;;;;5.43;2.10;;;25.10;4.40;;;;;;4982157;28;20916;-64
2023/07/31 08:03:44;;;;;;;7.43;2.70;;;26.40;2.60;;;;;;4975100;28;21322;-64
2023/07/31 08:06:11;;;;;;;5.17;2.03;;;28.10;1.00;;;;;;4973461;28;20457;-64
2023/07/31 08:08:38;;;;;;;4.90;2.00;;;30.20;1.00;;;;;;4976833;28;20511;-65
2023/07/31 08:11:05;;;;;;;5.73;1.90;;;31.40;1.00;;;;;;4970931;28;20998;-65
2023/07/31 08:13:32;;;;;;;7.40;1.97;;;31.70;1.00;;;;;;4971736;28;21011;-63
2023/07/31 08:16:00;;;;;;;3.93;1.40;;;32.50;1.00;;;;;;4969011;28;20477;-66
2023/07/31 08:18:27;;;;;;;7.17;1.90;;;33.60;1.00;;;;;;4966072;28;20464;-64
2023/07/31 08:20:53;;;;;;;4.80;1.93;;;33.60;1.00;;;;;;4971366;28;20961;-65
2023/07/31 08:23:20;;;;;;;3.80;1.30;;;33.00;1.00;;;;;;4976330;28;20462;-65
2023/07/31 08:25:49;;;;;;;4.80;1.87;;;32.40;1.00;;;;;;4974625;28;20465;-65
2023/07/31 08:28:16;;;;;;;6.37;2.40;;;31.50;1.00;;;;;;4975737;28;20492;-65
2023/07/31 08:30:43;;;;;;;6.30;2.00;;;30.60;1.00;;;;;;4973013;28;20488;-65
2023/07/31 08:33:13;;;;;;;7.70;1.80;;;30.00;1.00;;;;;;4991037;28;20472;-65
2023/07/31 08:35:40;;;;;;;6.33;2.00;;;29.20;1.00;;;;;;4985664;28;20457;-64
2023/07/31 08:38:06;;;;;;;6.77;2.07;;;28.70;1.00;;;;;;4991080;28;20456;-64
2023/07/31 08:40:36;;;;;;;5.23;2.50;;;28.80;1.00;;;;;;4991550;28;20461;-64
2023/07/31 08:43:03;;;;;;;4.77;2.00;;;29.10;1.00;;;;;;4990290;28;21142;-64
2023/07/31 08:45:31;;;;;;;7.13;2.50;;;30.60;1.00;;;;;;4989886;28;20480;-64
2023/07/31 08:47:58;;;;;;;4.50;2.00;;;31.30;1.00;;;;;;4990579;28;20480;-64
2023/07/31 08:50:27;;;;;;;4.73;1.90;;;33.70;1.00;;;;;;4990290;28;20539;-65
2023/07/31 08:52:54;;;;;;;6.13;1.77;;;36.90;1.00;;;;;;4991318;28;20461;-65
2023/07/31 08:55:23;;;;;;;6.10;1.80;;;39.30;1.00;;;;;;4990549;28;20484;-65
2023/07/31 08:57:52;;;;;;;6.90;1.70;;;40.90;1.00;;;;;;4989280;28;20538;-64
2023/07/31 09:00:23;;;;;;;6.90;1.80;;;42.10;1.00;;;;;;4985255;28;20991;-65
2023/07/31 09:02:56;;;;;;;5.63;2.13;;;43.10;1.00;;;;;;4991008;28;20453;-65
2023/07/31 09:05:27;;;;;;;4.77;1.60;;;43.70;1.00;;;;;;4989274;28;20492;-65
2023/07/31 09:07:55;;;;;;;4.87;1.83;;;44.40;1.00;;;;;;4991509;28;20477;-65
2023/07/31 09:10:22;;;;;;;4.50;1.90;;;45.20;1.00;;;;;;4989439;28;20839;-66
2023/07/31 09:12:50;;;;;;;6.43;1.90;;;46.10;1.00;;;;;;4991448;28;20479;-65
2023/07/31 09:15:17;;;;;;;3.90;1.97;;;47.00;1.00;;;;;;4987387;28;20515;-66
2023/07/31 09:17:44;;;;;;;4.37;1.77;;;47.20;1.00;;;;;;4987746;28;20464;-65
2023/07/31 09:20:19;;;;;;;4.00;1.47;;;46.20;1.00;;;;;;4987581;28;20457;-65
2023/07/31 09:22:47;;;;;;;5.97;2.33;;;44.60;1.00;;;;;;4987725;28;20467;-66
2023/07/31 09:25:18;;;;;;;4.47;1.60;;;43.80;1.00;;;;;;4988284;28;20480;-66
2023/07/31 09:27:50;;;;;;;6.60;2.03;;;42.60;1.00;;;;;;4988821;28;20488;-65
2023/07/31 09:30:17;;;;;;;4.20;1.87;;;41.80;1.00;;;;;;4986963;28;20785;-65
2023/07/31 09:32:45;;;;;;;4.57;2.23;;;41.00;1.00;;;;;;4990527;28;20495;-66
2023/07/31 09:35:23;;;;;;;5.50;1.90;;;39.70;1.00;;;;;;4985998;28;20486;-65
2023/07/31 09:37:53;;;;;;;3.77;1.40;;;38.00;1.00;;;;;;4989425;28;20460;-65
2023/07/31 09:40:27;;;;;;;5.13;1.80;;;38.60;1.00;;;;;;4989018;28;20978;-65
2023/07/31 09:42:55;;;;;;;4.37;1.63;;;40.50;1.00;;;;;;4986913;28;20451;-66
2023/07/31 09:45:21;;;;;;;5.57;2.00;;;42.70;1.00;;;;;;4988293;28;20473;-65
2023/07/31 09:47:49;;;;;;;7.13;2.00;;;44.30;1.00;;;;;;4985324;28;20565;-65
2023/07/31 09:50:16;;;;;;;5.10;1.73;;;44.70;1.00;;;;;;4988750;28;20538;-65
2023/07/31 09:52:43;;;;;;;9.40;2.13;;;44.90;1.00;;;;;;4988815;28;20555;-67
2023/07/31 09:55:11;;;;;;;5.60;1.63;;;44.60;1.00;;;;;;4988690;28;20488;-65
2023/07/31 09:57:40;;;;;;;7.50;2.10;;;43.40;1.00;;;;;;4986742;28;20453;-65
2023/07/31 10:00:09;;;;;;;5.57;1.90;;;43.10;1.00;;;;;;4989087;28;20464;-66
2023/07/31 10:02:37;;;;;;;5.40;1.77;;;42.50;1.00;;;;;;4987801;28;20481;-65
2023/07/31 10:05:05;;;;;;;6.27;1.97;;;40.90;1.00;;;;;;4989047;28;20488;-66
2023/07/31 10:07:34;;;;;;;4.90;1.53;;;39.80;1.00;;;;;;4989842;28;20759;-66
2023/07/31 10:10:02;;;;;;;4.70;1.70;;;39.20;1.00;;;;;;4990345;28;20464;-66
2023/07/31 10:12:32;;;;;;;5.17;2.00;;;38.30;1.00;;;;;;4989476;28;20473;-64
2023/07/31 10:15:01;;;;;;;7.73;2.07;;;37.40;1.00;;;;;;4987537;28;20484;-65
2023/07/31 10:17:28;;;;;;;4.33;1.63;;;36.40;1.00;;;;;;4988919;28;20495;-65
2023/07/31 10:19:57;;;;;;;5.30;1.70;;;35.50;1.00;;;;;;4984749;28;20461;-65
2023/07/31 10:22:24;;;;;;;4.13;1.87;;;34.50;1.00;;;;;;4988961;28;20469;-64
2023/07/31 10:24:53;;;;;;;5.83;1.97;;;33.70;1.00;;;;;;4987458;28;20491;-64
2023/07/31 10:27:20;;;;;;;4.60;1.87;;;33.00;1.00;;;;;;4981401;28;20867;-64
2023/07/31 10:29:50;;;;;;;4.60;2.17;;;32.30;1.00;;;;;;4986547;28;20471;-65
2023/07/31 10:32:18;;;;;;;4.30;2.00;;;31.50;1.00;;;;;;4984103;28;20484;-64
2023/07/31 10:34:45;;;;;;;4.43;1.93;;;30.80;1.00;;;;;;4988815;28;20487;-64
2023/07/31 10:37:23;;;;;;;5.83;1.93;;;30.50;1.00;;;;;;4986763;28;20472;-65
2023/07/31 10:40:00;;;;;;;6.30;1.80;;;30.10;1.00;;;;;;4985538;28;20507;-64
2023/07/31 10:42:35;;;;;;;5.93;2.17;;;30.00;1.00;;;;;;4983299;28;20464;-65
2023/07/31 10:45:05;;;;;;;5.10;1.93;;;30.00;1.00;;;;;;4987632;28;20479;-64
2023/07/31 10:47:37;;;;;;;5.33;1.70;;;30.00;1.00;;;;;;4988230;28;20465;-64
2023/07/31 10:50:18;;;;;;;5.00;2.20;;;30.00;1.00;;;;;;4988553;28;20475;-65
2023/07/31 10:52:49;;;;;;;5.57;1.70;;;29.90;1.00;;;;;;4982785;28;20507;-65
2023/07/31 10:55:32;;;;;;;5.20;1.83;;;29.90;1.00;;;;;;4983066;28;20493;-64
2023/07/31 10:58:06;;;;;;;6.53;2.13;;;29.70;1.00;;;;;;4980419;28;20457;-64
2023/07/31 11:00:37;;;;;;;5.33;1.80;;;29.60;1.00;;;;;;4989000;28;20524;-64
2023/07/31 11:03:06;;;;;;;6.27;2.13;;;29.40;1.00;;;;;;4987902;28;20461;-64
2023/07/31 11:05:43;;;;;;;5.83;2.27;;;29.40;1.00;;;;;;4989156;28;20487;-64
2023/07/31 11:08:15;;;;;;;3.80;1.20;;;29.40;1.00;;;;;;4989563;28;20545;-64
2023/07/31 11:10:42;;;;;;;4.10;1.50;;;29.40;1.00;;;;;;4986838;28;20467;-64
2023/07/31 11:13:09;;;;;;;4.30;1.53;;;29.30;1.00;;;;;;4989981;28;20478;-64
2023/07/31 11:15:37;;;;;;;3.97;1.80;;;28.90;1.00;;;;;;4988057;28;20885;-64
2023/07/31 11:18:05;;;;;;;5.60;1.90;;;28.60;1.00;;;;;;4983487;28;20462;-64
2023/07/31 11:20:32;;;;;;;7.30;2.10;;;28.30;1.00;;;;;;4984696;28;20464;-64
2023/07/31 11:23:01;;;;;;;4.50;1.53;;;28.10;1.00;;;;;;4987782;28;20988;-63
2023/07/31 11:25:30;;;;;;;7.27;1.87;;;27.80;1.00;;;;;;4986811;28;21324;-64
2023/07/31 11:27:57;;;;;;;4.53;1.70;;;27.70;1.00;;;;;;4982286;28;20461;-64
2023/07/31 11:30:24;;;;;;;4.77;1.90;;;27.70;1.00;;;;;;4982786;28;20859;-64
2023/07/31 11:32:52;;;;;;;5.00;1.90;;;27.60;1.00;;;;;;4989185;28;21045;-63
2023/07/31 11:35:19;;;;;;;6.23;2.03;;;27.50;1.00;;;;;;4991768;28;20487;-64
2023/07/31 11:37:46;;;;;;;6.03;1.93;;;27.40;1.00;;;;;;4991541;28;20472;-65
2023/07/31 11:40:13;;;;;;;6.30;2.00;;;27.40;1.00;;;;;;4986227;28;20519;-64
2023/07/31 11:42:39;;;;;;;4.93;1.90;;;27.30;1.00;;;;;;4985504;28;20457;-65
2023/07/31 11:45:08;;;;;;;4.70;1.80;;;27.10;1.00;;;;;;4984153;28;20491;-63
2023/07/31 11:47:35;;;;;;;6.50;2.23;;;26.90;1.00;;;;;;4987125;28;20460;-64
2023/07/31 11:50:04;;;;;;;5.00;1.93;;;26.70;1.00;;;;;;4988593;28;20512;-64
2023/07/31 11:52:34;;;;;;;5.70;1.90;;;26.50;1.00;;;;;;4981526;28;20467;-64
2023/07/31 11:55:01;;;;;;;6.40;2.40;;;26.40;1.00;;;;;;4986169;28;20476;-63
2023/07/31 11:57:29;;;;;;;5.83;2.00;;;26.40;1.00;;;;;;4981024;28;20459;-63
2023/07/31 11:59:58;;;;;;;5.57;1.80;;;26.40;1.00;;;;;;4985785;28;20465;-64
2023/07/31 12:02:25;;;;;;;4.80;2.00;;;26.40;1.00;;;;;;4969615;28;20474;-64
2023/07/31 12:04:51;;;;;;;7.07;2.10;;;26.40;1.00;;;;;;4969991;28;20488;-64
2023/07/31 12:07:19;;;;;;;4.80;2.17;;;26.40;1.00;;;;;;4963496;28;20880;-64
2023/07/31 12:09:53;;;;;;;5.73;2.17;;;26.40;1.00;;;;;;4965120;28;20515;-64
2023/07/31 12:12:24;;;;;;;5.67;1.90;;;26.30;1.00;;;;;;4969571;28;20465;-64
2023/07/31 12:14:51;;;;;;;6.90;2.27;;;26.40;1.00;;;;;;4965976;28;20911;-64
2023/07/31 12:17:19;;;;;;;5.97;2.40;;;26.50;1.00;;;;;;4967288;28;22284;-64
2023/07/31 12:19:46;;;;;;;4.77;2.10;;;26.60;1.00;;;;;;4958619;28;20961;-63
2023/07/31 12:22:14;;;;;;;5.60;2.20;;;26.70;1.00;;;;;;4964740;28;20458;-63
2023/07/31 12:24:45;;;;;;;5.17;2.00;;;26.80;1.00;;;;;;4961371;28;20485;-66
2023/07/31 12:27:12;;;;;;;8.07;2.63;;;26.90;1.00;;;;;;4963414;28;20466;-64
2023/07/31 12:29:40;;;;;;;9.53;2.63;;;26.90;1.00;;;;;;4965097;28;20490;-63
2023/07/31 12:32:20;;;;;;;8.93;2.40;;;26.80;1.00;;;;;;4980836;28;21012;-64
2023/07/31 12:34:47;;;;;;;6.37;2.20;;;26.70;1.00;;;;;;4987008;28;21029;-64
2023/07/31 12:37:13;;;;;;;5.73;2.20;;;26.70;1.00;;;;;;4990549;28;20463;-64
2023/07/31 12:39:41;;;;;;;4.80;1.80;;;26.60;1.00;;;;;;4982425;28;20456;-64
2023/07/31 12:42:08;;;;;;;8.47;2.10;;;26.60;1.00;;;;;;4986189;28;20461;-65
2023/07/31 12:44:35;;;;;;;6.90;2.20;;;26.50;1.00;;;;;;4987378;28;20493;-64
2023/07/31 12:47:02;;;;;;;6.10;2.57;;;26.40;1.00;;;;;;4987870;28;20461;-64
2023/07/31 12:49:29;;;;;;;9.47;3.00;;;26.40;1.00;;;;;;4987022;28;20485;-64
2023/07/31 12:51:55;;;;;;;7.83;2.70;;;26.50;1.00;;;;;;4986001;28;20479;-64
2023/07/31 12:54:22;;;;;;;5.63;2.17;;;26.50;1.00;;;;;;4987405;28;20481;-64
2023/07/31 12:56:50;;;;;;;6.80;2.03;;;26.50;1.00;;;;;;4991019;28;20818;-65